Time;durP1;ratioP1;P1;durP2;ratioP2;P2;SDS_P1;SDS_P2;PMS_P1;PMS_P2;Temp;Humidity;BMP_temperature;BMP_pressure;BME280_temperature;BME280_humidity;BME280_pressure;Samples;Min_cycle;Max_cycle;Signal;HPM_P1;HPM_P2
2022/12/27 00:00:51;;;;;;;19.47;12.17;;;1.80;99.90;;;;;;5074802;28;20222;-73
2022/12/27 00:03:18;;;;;;;20.13;11.87;;;1.80;99.90;;;;;;5075179;28;20213;-74
2022/12/27 00:05:46;;;;;;;20.73;12.10;;;1.90;99.90;;;;;;5074528;28;20245;-73
2022/12/27 00:08:13;;;;;;;20.63;12.70;;;1.90;99.90;;;;;;5074954;28;20204;-72
2022/12/27 00:10:40;;;;;;;20.80;12.60;;;1.90;99.90;;;;;;5074955;28;20533;-73
2022/12/27 00:13:06;;;;;;;21.70;13.03;;;1.90;99.90;;;;;;5088848;28;20196;-73
2022/12/27 00:15:34;;;;;;;20.33;12.73;;;1.90;99.90;;;;;;5095216;28;20208;-72
2022/12/27 00:18:03;;;;;;;19.87;12.70;;;1.90;99.90;;;;;;5095130;28;20623;-72
2022/12/27 00:20:29;;;;;;;19.93;13.00;;;1.90;99.90;;;;;;5071137;28;20205;-73
2022/12/27 00:22:56;;;;;;;24.33;14.00;;;1.90;99.90;;;;;;5070430;28;20205;-72
2022/12/27 00:25:23;;;;;;;20.83;12.83;;;2.00;99.90;;;;;;5074676;28;20220;-73
2022/12/27 00:27:50;;;;;;;20.90;12.97;;;2.00;99.90;;;;;;5072250;28;20603;-73
2022/12/27 00:30:16;;;;;;;20.63;13.10;;;2.00;99.90;;;;;;5074203;28;20652;-73
2022/12/27 00:32:43;;;;;;;24.27;14.33;;;2.00;99.90;;;;;;5071950;28;20216;-73
2022/12/27 00:35:11;;;;;;;19.77;13.17;;;2.00;99.90;;;;;;5074086;28;20560;-73
2022/12/27 00:37:38;;;;;;;22.33;13.13;;;2.00;99.90;;;;;;5072751;28;20200;-73
2022/12/27 00:40:05;;;;;;;25.03;14.07;;;2.00;99.90;;;;;;5074621;28;20683;-72
2022/12/27 00:42:32;;;;;;;18.80;12.47;;;2.00;99.90;;;;;;5074486;28;20211;-73
2022/12/27 00:44:59;;;;;;;19.23;12.70;;;2.00;99.90;;;;;;5073466;28;20207;-72
2022/12/27 00:47:26;;;;;;;19.07;12.60;;;2.00;99.90;;;;;;5074622;28;20335;-72
2022/12/27 00:49:52;;;;;;;23.67;13.30;;;2.00;99.90;;;;;;5074231;28;20201;-73
2022/12/27 00:52:20;;;;;;;21.03;12.97;;;2.00;99.90;;;;;;5074241;28;20209;-73
2022/12/27 00:54:47;;;;;;;21.97;14.00;;;2.00;99.90;;;;;;5073199;28;20208;-72
2022/12/27 00:57:14;;;;;;;20.27;13.77;;;2.00;99.90;;;;;;5074141;28;20208;-72
2022/12/27 00:59:41;;;;;;;21.60;13.73;;;2.00;99.90;;;;;;5074081;28;20212;-73
2022/12/27 01:02:07;;;;;;;21.37;13.47;;;2.10;99.90;;;;;;5073971;28;20224;-72
2022/12/27 01:04:34;;;;;;;23.00;15.00;;;2.00;99.90;;;;;;5072883;28;20334;-73
2022/12/27 01:07:01;;;;;;;22.83;15.23;;;2.00;99.90;;;;;;5070293;28;20227;-74
2022/12/27 01:09:29;;;;;;;22.47;15.50;;;2.10;99.90;;;;;;5069681;28;20653;-72
2022/12/27 01:11:56;;;;;;;23.63;16.33;;;2.10;99.90;;;;;;5073589;28;20205;-73
2022/12/27 01:14:23;;;;;;;23.97;15.80;;;2.20;99.90;;;;;;5074085;28;20209;-72
2022/12/27 01:16:49;;;;;;;25.13;16.07;;;2.20;99.90;;;;;;5073563;28;20290;-73
2022/12/27 01:19:17;;;;;;;26.87;15.80;;;2.20;99.90;;;;;;5072460;28;20208;-72
2022/12/27 01:21:43;;;;;;;24.63;15.40;;;2.30;99.90;;;;;;5073585;28;20622;-72
2022/12/27 01:24:10;;;;;;;22.20;15.20;;;2.20;99.90;;;;;;5073256;28;20205;-72
2022/12/27 01:26:38;;;;;;;23.77;15.20;;;2.30;99.90;;;;;;5073099;28;20221;-72
2022/12/27 01:29:05;;;;;;;24.30;14.87;;;2.30;99.90;;;;;;5072692;28;20208;-73
2022/12/27 01:31:32;;;;;;;19.53;13.13;;;2.30;99.90;;;;;;5073256;28;20215;-72
2022/12/27 01:34:00;;;;;;;23.27;14.60;;;2.30;99.90;;;;;;5073343;28;20212;-73
2022/12/27 01:36:29;;;;;;;23.93;14.70;;;2.40;99.90;;;;;;5070688;28;20196;-73
2022/12/27 01:38:56;;;;;;;19.70;13.50;;;2.40;99.90;;;;;;5073663;28;20262;-72
2022/12/27 01:44:55;;;;;;;19.87;13.43;;;2.40;99.90;;;;;;5073109;28;20227;-72
2022/12/27 01:47:30;;;;;;;20.63;13.57;;;2.40;99.90;;;;;;5071881;28;20220;-73
2022/12/27 01:50:03;;;;;;;20.67;13.20;;;2.40;99.90;;;;;;5073278;28;20199;-73
2022/12/27 01:52:34;;;;;;;23.47;14.50;;;2.40;99.90;;;;;;5072827;28;20189;-71
2022/12/27 01:55:08;;;;;;;23.03;14.00;;;2.50;99.90;;;;;;5072319;28;20653;-72
2022/12/27 01:57:35;;;;;;;20.47;13.90;;;2.50;99.90;;;;;;5072775;28;20211;-72
2022/12/27 02:00:02;;;;;;;22.40;13.80;;;2.50;99.90;;;;;;5072817;28;20574;-72
2022/12/27 02:02:30;;;;;;;20.20;13.70;;;2.50;99.90;;;;;;5072524;28;20684;-72
2022/12/27 02:04:57;;;;;;;20.13;13.20;;;2.50;99.90;;;;;;5070505;28;20236;-72
2022/12/27 02:07:31;;;;;;;19.27;12.87;;;2.60;99.90;;;;;;5072658;28;20227;-71
2022/12/27 02:10:00;;;;;;;21.47;13.83;;;2.60;99.90;;;;;;5071349;28;20204;-72
2022/12/27 02:12:27;;;;;;;20.97;13.13;;;2.60;99.90;;;;;;5072639;28;20205;-72
2022/12/27 02:14:54;;;;;;;22.20;14.13;;;2.60;99.90;;;;;;5072585;28;20204;-73
2022/12/27 02:17:25;;;;;;;21.87;14.80;;;2.60;99.90;;;;;;5072870;28;20208;-72
2022/12/27 02:20:01;;;;;;;19.77;14.03;;;2.60;99.90;;;;;;5071512;28;20196;-72
2022/12/27 02:26:24;;;;;;;21.17;14.57;;;2.60;99.90;;;;;;5072342;28;20180;-72
2022/12/27 02:29:03;;;;;;;22.90;15.90;;;2.60;99.90;;;;;;5071507;28;20204;-72
2022/12/27 02:31:35;;;;;;;25.10;16.83;;;2.60;99.90;;;;;;5071915;28;20192;-72
2022/12/27 02:34:07;;;;;;;25.00;16.07;;;2.60;99.90;;;;;;5072423;28;20189;-72
2022/12/27 02:36:36;;;;;;;21.03;14.23;;;2.60;99.90;;;;;;5069449;28;20196;-72
2022/12/27 02:39:05;;;;;;;25.07;15.20;;;2.60;99.90;;;;;;5072074;28;20212;-73
2022/12/27 02:53:04;;;;;;;22.67;16.37;;;2.60;99.90;;;;;;5071702;28;20191;-73
2022/12/27 02:55:39;;;;;;;29.23;17.70;;;2.70;99.90;;;;;;5069952;28;20200;-71
2022/12/27 02:58:21;;;;;;;23.37;15.73;;;2.70;99.90;;;;;;5069327;28;20189;-73
2022/12/27 03:03:56;;;;;;;25.57;16.47;;;2.70;99.90;;;;;;5071927;28;20671;-72
2022/12/27 03:07:03;;;;;;;20.30;14.50;;;2.70;99.90;;;;;;5070554;28;20599;-72
2022/12/27 03:15:57;;;;;;;25.77;16.37;;;2.80;99.90;;;;;;5065291;28;20207;-73
2022/12/27 03:19:01;;;;;;;20.90;14.53;;;2.80;99.90;;;;;;5071767;28;20199;-72
2022/12/27 03:27:16;;;;;;;25.53;15.17;;;3.00;99.90;;;;;;5071833;28;20627;-72
2022/12/27 03:35:25;;;;;;;20.93;14.10;;;3.00;99.90;;;;;;5064326;28;20196;-72
2022/12/27 03:38:04;;;;;;;23.13;14.00;;;3.00;99.90;;;;;;5070216;28;20194;-71
2022/12/27 03:43:09;;;;;;;22.23;14.17;;;3.00;99.90;;;;;;5069389;28;20211;-68
2022/12/27 03:43:29;;;;;;;23.17;14.47;;;3.10;99.90;;;;;;5050881;28;20190;-69
2022/12/27 03:48:56;;;;;;;30.20;19.30;;;3.20;99.90;;;;;;5051334;28;20184;-68
2022/12/27 03:51:27;;;;;;;28.90;18.90;;;3.20;99.90;;;;;;5056893;28;20193;-69
2022/12/27 03:54:00;;;;;;;39.43;23.00;;;3.20;99.90;;;;;;5071548;28;20197;-68
2022/12/27 03:56:27;;;;;;;34.20;21.43;;;3.20;99.90;;;;;;5071139;28;20188;-68
2022/12/27 03:58:55;;;;;;;31.37;20.67;;;3.20;99.90;;;;;;5071459;28;20696;-67
2022/12/27 04:01:22;;;;;;;32.47;20.23;;;3.10;99.90;;;;;;5069096;28;20586;-67
2022/12/27 04:03:49;;;;;;;24.73;16.50;;;3.20;99.90;;;;;;5069737;28;20692;-66
2022/12/27 04:06:16;;;;;;;24.37;17.07;;;3.20;99.90;;;;;;5070449;28;20244;-68
2022/12/27 04:36:07;;;;;;;27.90;16.63;;;3.40;99.90;;;;;;5054140;28;20192;-66
2022/12/27 04:38:34;;;;;;;25.27;15.70;;;3.40;99.90;;;;;;5073971;28;20223;-68
2022/12/27 04:54:57;;;;;;;25.97;16.77;;;3.50;99.90;;;;;;5073864;28;20254;-67
2022/12/27 04:57:26;;;;;;;28.13;18.23;;;3.50;99.90;;;;;;5072717;28;20213;-69
2022/12/27 05:02:37;;;;;;;28.90;18.10;;;3.50;99.90;;;;;;5073783;28;20545;-68
2022/12/27 05:05:04;;;;;;;31.60;19.27;;;3.60;99.90;;;;;;5073085;28;20696;-68
2022/12/27 05:15:49;;;;;;;41.20;24.20;;;3.60;99.90;;;;;;5039115;28;20193;-69
2022/12/27 05:18:15;;;;;;;42.27;24.57;;;3.60;99.90;;;;;;5072203;28;20729;-67
2022/12/27 05:20:42;;;;;;;38.87;23.43;;;3.70;99.90;;;;;;5071759;28;20649;-67
2022/12/27 05:25:53;;;;;;;44.93;24.97;;;3.70;99.90;;;;;;5073302;28;20212;-70
2022/12/27 05:28:21;;;;;;;44.60;24.70;;;3.70;99.90;;;;;;5072950;28;20252;-67
2022/12/27 05:30:48;;;;;;;38.73;23.20;;;3.70;99.90;;;;;;5071751;28;20664;-69
2022/12/27 10:05:33;;;;;;;129.77;40.17;;;5.20;99.90;;;;;;5085950;27;20562;-69
2022/12/27 10:08:20;;;;;;;118.77;38.07;;;5.20;99.90;;;;;;5611345;22;20527;-69
2022/12/27 10:10:58;;;;;;;290.77;50.73;;;5.40;99.90;;;;;;5048069;28;20206;-69
2022/12/27 10:13:42;;;;;;;132.97;38.07;;;5.50;99.90;;;;;;5049140;28;20555;-69
2022/12/27 10:16:22;;;;;;;167.03;41.83;;;5.60;99.90;;;;;;5049156;28;20309;-69
2022/12/27 10:19:05;;;;;;;159.57;41.13;;;5.70;99.90;;;;;;5035561;28;20656;-70
2022/12/27 10:21:37;;;;;;;141.20;40.23;;;5.80;99.90;;;;;;5048181;28;20193;-69
2022/12/27 10:24:19;;;;;;;108.80;36.40;;;5.90;99.90;;;;;;5048834;28;20213;-69
2022/12/27 10:26:45;;;;;;;108.67;35.83;;;6.00;99.90;;;;;;5047878;28;20201;-70
2022/12/27 10:29:20;;;;;;;118.00;37.30;;;6.10;99.90;;;;;;5049152;28;20649;-70
2022/12/27 10:31:47;;;;;;;112.13;36.90;;;6.20;99.90;;;;;;5044277;28;20529;-69
2022/12/27 10:34:16;;;;;;;111.93;35.77;;;6.20;99.90;;;;;;5028818;28;20202;-69
2022/12/27 10:36:45;;;;;;;102.37;33.20;;;6.30;99.90;;;;;;5042795;28;20280;-70
2022/12/27 10:39:17;;;;;;;77.67;30.77;;;6.40;99.90;;;;;;5048387;28;20209;-70
2022/12/27 10:41:56;;;;;;;81.30;31.63;;;6.40;99.90;;;;;;5044547;28;20230;-72
2022/12/27 10:44:23;;;;;;;77.87;29.93;;;6.50;99.90;;;;;;5020794;28;20581;-70
2022/12/27 10:46:52;;;;;;;90.60;32.10;;;6.50;99.90;;;;;;5021649;28;20587;-71
2022/12/27 10:49:25;;;;;;;82.20;30.67;;;6.60;99.90;;;;;;5015248;28;20635;-70
2022/12/27 10:51:56;;;;;;;87.63;32.93;;;6.60;99.90;;;;;;5025841;28;20293;-71
2022/12/27 10:54:25;;;;;;;100.97;34.37;;;6.70;99.90;;;;;;5041347;28;20607;-72
2022/12/27 10:56:53;;;;;;;104.90;35.67;;;6.70;99.90;;;;;;5040544;28;20249;-69
2022/12/27 10:59:21;;;;;;;71.17;30.10;;;6.70;99.90;;;;;;5028717;28;20214;-70
2022/12/27 11:01:52;;;;;;;83.07;32.37;;;6.80;99.90;;;;;;5028634;28;20206;-70
2022/12/27 11:04:21;;;;;;;91.77;32.13;;;6.80;99.90;;;;;;5028457;28;20222;-69
2022/12/27 11:06:50;;;;;;;91.17;34.30;;;6.80;99.90;;;;;;5028087;28;20209;-72
2022/12/27 11:09:30;;;;;;;108.47;34.90;;;6.70;99.90;;;;;;5020373;28;20598;-70
2022/12/27 11:12:17;;;;;;;76.73;31.17;;;6.80;99.90;;;;;;5028551;28;20521;-70
2022/12/27 11:14:55;;;;;;;87.93;31.13;;;6.80;99.90;;;;;;5026406;28;20186;-71
2022/12/27 11:17:25;;;;;;;101.57;34.60;;;6.80;99.90;;;;;;5015104;28;20202;-71
2022/12/27 11:19:52;;;;;;;77.83;30.87;;;6.80;99.90;;;;;;5013449;28;20286;-71
2022/12/27 11:22:19;;;;;;;94.27;33.63;;;6.90;99.90;;;;;;5014262;28;20617;-73
2022/12/27 11:24:50;;;;;;;97.03;34.23;;;6.90;99.90;;;;;;5010809;28;20228;-73
2022/12/27 11:27:24;;;;;;;100.23;33.37;;;7.00;99.90;;;;;;5006996;28;20217;-72
2022/12/27 11:29:51;;;;;;;93.13;35.07;;;7.00;99.90;;;;;;5012158;28;20207;-74
2022/12/27 11:32:22;;;;;;;108.70;36.77;;;7.00;99.90;;;;;;5011610;28;20234;-71
2022/12/27 11:34:50;;;;;;;96.90;34.60;;;7.00;99.90;;;;;;5009511;28;20206;-70
2022/12/27 11:37:19;;;;;;;76.07;30.83;;;7.00;99.90;;;;;;5013700;28;20226;-72
2022/12/27 11:39:50;;;;;;;85.57;30.87;;;7.10;99.90;;;;;;5012698;28;20213;-71
2022/12/27 11:42:24;;;;;;;111.83;33.93;;;7.10;99.90;;;;;;4999203;28;20207;-72
2022/12/27 11:45:01;;;;;;;82.40;30.77;;;7.10;99.90;;;;;;5010318;28;20215;-71
2022/12/27 11:47:35;;;;;;;101.67;32.87;;;7.10;99.90;;;;;;5010178;28;20690;-72
2022/12/27 11:50:22;;;;;;;93.23;31.97;;;7.10;99.90;;;;;;5017135;28;20191;-72
2022/12/27 11:53:01;;;;;;;104.93;32.43;;;7.10;99.90;;;;;;5032165;28;20511;-71
2022/12/27 11:55:47;;;;;;;138.80;34.30;;;7.10;99.90;;;;;;5012076;28;20190;-72
2022/12/27 11:58:52;;;;;;;81.70;31.23;;;7.10;99.90;;;;;;5013990;28;20660;-71
2022/12/27 12:01:39;;;;;;;116.03;30.93;;;7.10;99.90;;;;;;4975115;28;20569;-71
2022/12/27 12:04:54;;;;;;;70.10;27.87;;;7.10;99.90;;;;;;5014660;28;20209;-71
2022/12/27 12:07:38;;;;;;;95.57;31.20;;;7.10;99.90;;;;;;5015343;28;20209;-72
2022/12/27 12:10:21;;;;;;;124.07;34.50;;;7.10;99.90;;;;;;5013597;28;20610;-72
2022/12/27 12:13:08;;;;;;;97.13;33.23;;;7.10;99.90;;;;;;5013559;28;20631;-71
2022/12/27 12:16:08;;;;;;;79.87;30.47;;;7.10;99.90;;;;;;5013785;28;20194;-71
2022/12/27 12:18:49;;;;;;;99.30;31.00;;;7.10;99.90;;;;;;4980764;28;20254;-70
2022/12/27 12:21:25;;;;;;;76.97;29.90;;;7.10;99.90;;;;;;5012945;28;20210;-69
2022/12/27 12:24:28;;;;;;;84.93;31.70;;;7.00;99.90;;;;;;5012000;28;20209;-71
2022/12/27 12:27:08;;;;;;;81.53;30.80;;;7.00;99.90;;;;;;5001607;28;20202;-72
2022/12/27 12:29:58;;;;;;;84.37;32.40;;;7.00;99.90;;;;;;5018970;28;20198;-70
2022/12/27 12:32:43;;;;;;;114.87;35.37;;;7.00;99.90;;;;;;5014017;28;20198;-73
2022/12/27 12:35:31;;;;;;;116.23;34.90;;;7.00;99.90;;;;;;5024561;28;20214;-70
2022/12/27 12:38:19;;;;;;;106.37;34.40;;;6.90;99.90;;;;;;4994561;28;20696;-71
2022/12/27 12:41:12;;;;;;;90.97;33.07;;;7.00;99.90;;;;;;5032964;28;20639;-71
2022/12/27 12:44:06;;;;;;;93.30;33.40;;;7.00;99.90;;;;;;4997183;28;20210;-71
2022/12/27 12:46:43;;;;;;;115.80;36.03;;;7.00;99.90;;;;;;5030202;28;20198;-71
2022/12/27 12:49:37;;;;;;;87.87;32.30;;;6.90;99.90;;;;;;5028854;28;20209;-73
2022/12/27 12:52:25;;;;;;;109.63;35.07;;;7.00;99.90;;;;;;5013768;28;20260;-73
2022/12/27 12:55:10;;;;;;;93.87;32.93;;;6.90;99.90;;;;;;5013765;28;20184;-72
2022/12/27 12:57:49;;;;;;;100.70;34.30;;;6.90;99.90;;;;;;5014003;28;20710;-73
2022/12/27 13:00:29;;;;;;;99.73;34.50;;;6.90;99.90;;;;;;5025436;28;20201;-72
2022/12/27 13:03:36;;;;;;;81.33;32.73;;;6.90;99.90;;;;;;5026575;28;20554;-72
2022/12/27 13:06:16;;;;;;;95.77;33.50;;;6.90;99.90;;;;;;5014737;28;20229;-73
2022/12/27 13:08:47;;;;;;;85.60;32.67;;;6.90;99.90;;;;;;5024187;28;20241;-73
2022/12/27 13:11:28;;;;;;;99.70;34.43;;;6.90;99.90;;;;;;5006599;28;20199;-73
2022/12/27 13:14:20;;;;;;;67.50;30.23;;;6.90;99.90;;;;;;5009368;28;20217;-72
2022/12/27 13:16:56;;;;;;;75.70;31.57;;;6.90;99.90;;;;;;5001184;28;20199;-72
2022/12/27 13:19:41;;;;;;;66.73;28.43;;;6.90;99.90;;;;;;5002683;28;20214;-72
2022/12/27 13:22:15;;;;;;;62.77;27.20;;;6.90;99.90;;;;;;5009054;28;20655;-70
2022/12/27 13:25:00;;;;;;;73.03;30.00;;;6.90;99.90;;;;;;5012739;28;20793;-70
2022/12/27 13:27:34;;;;;;;82.47;31.30;;;6.90;99.90;;;;;;5017308;28;20209;-69
2022/12/27 13:30:12;;;;;;;73.70;31.90;;;6.90;99.90;;;;;;5009065;28;20261;-70
2022/12/27 13:32:51;;;;;;;99.60;35.07;;;6.90;99.90;;;;;;5005889;28;20639;-70
2022/12/27 13:35:33;;;;;;;84.63;34.90;;;6.90;99.90;;;;;;5008729;28;20202;-70
2022/12/27 13:38:13;;;;;;;81.80;32.00;;;6.90;99.90;;;;;;4999615;28;20238;-71
2022/12/27 13:41:22;;;;;;;94.50;34.47;;;6.90;99.90;;;;;;5009740;28;20203;-71
2022/12/27 13:44:10;;;;;;;70.00;30.17;;;6.90;99.90;;;;;;5008026;28;20268;-71
2022/12/27 13:46:50;;;;;;;79.40;31.00;;;6.90;99.90;;;;;;4997747;28;20230;-70
2022/12/27 13:49:41;;;;;;;76.03;31.17;;;6.90;99.90;;;;;;4993610;28;20195;-70
2022/12/27 13:52:21;;;;;;;62.00;27.50;;;6.90;99.90;;;;;;5012384;28;20226;-71
2022/12/27 13:55:11;;;;;;;67.77;28.87;;;6.90;99.90;;;;;;5012809;28;20672;-70
2022/12/27 13:58:08;;;;;;;52.70;25.53;;;6.80;99.90;;;;;;5004634;28;20186;-70
2022/12/27 14:00:42;;;;;;;59.07;26.47;;;6.90;99.90;;;;;;5019887;28;20209;-73
2022/12/27 14:03:44;;;;;;;53.87;25.07;;;6.80;99.90;;;;;;5021043;28;20196;-70
2022/12/27 14:06:45;;;;;;;54.57;25.17;;;6.80;99.90;;;;;;5016457;28;20226;-71
2022/12/27 14:09:34;;;;;;;58.50;25.53;;;6.80;99.90;;;;;;5011744;28;20234;-70
2022/12/27 14:12:47;;;;;;;51.40;25.30;;;6.90;99.90;;;;;;5004118;28;20199;-71
2022/12/27 14:15:18;;;;;;;41.80;22.20;;;6.80;99.90;;;;;;4989978;28;20304;-71
2022/12/27 14:17:54;;;;;;;44.20;22.47;;;6.80;99.90;;;;;;5011851;28;20206;-70
2022/12/27 14:20:44;;;;;;;41.80;21.80;;;6.90;99.90;;;;;;5012171;28;20209;-71
2022/12/27 14:23:33;;;;;;;48.80;23.77;;;6.90;99.90;;;;;;5012056;28;20197;-71
2022/12/27 14:26:48;;;;;;;44.37;23.53;;;6.90;99.90;;;;;;5011408;28;20218;-70
2022/12/27 14:29:43;;;;;;;39.20;20.40;;;6.90;99.90;;;;;;4921046;29;20219;-72
2022/12/27 14:32:44;;;;;;;39.80;21.93;;;6.90;99.90;;;;;;5006634;28;20200;-71
2022/12/27 14:35:35;;;;;;;36.17;19.93;;;6.90;99.90;;;;;;5010216;28;20240;-71
2022/12/27 14:39:05;;;;;;;33.60;18.53;;;6.80;99.90;;;;;;5011843;28;20246;-70
2022/12/27 14:42:14;;;;;;;31.60;17.87;;;6.80;99.90;;;;;;4894046;29;20715;-73
2022/12/27 14:45:10;;;;;;;26.47;16.03;;;6.80;99.90;;;;;;4931267;29;20739;-71
2022/12/27 14:48:17;;;;;;;23.47;14.50;;;6.70;99.90;;;;;;5008446;28;20217;-70
2022/12/27 14:51:21;;;;;;;19.87;12.70;;;6.70;99.90;;;;;;5014184;28;20206;-70
2022/12/27 14:54:29;;;;;;;20.63;12.23;;;6.60;99.90;;;;;;4996109;28;20639;-71
2022/12/27 14:57:08;;;;;;;20.50;12.00;;;6.70;99.90;;;;;;5010568;28;20199;-70
2022/12/27 14:59:45;;;;;;;24.37;13.47;;;6.70;99.90;;;;;;5015462;28;20202;-72
2022/12/27 15:02:30;;;;;;;25.37;14.93;;;6.70;99.90;;;;;;5015622;28;20218;-72
2022/12/27 15:05:07;;;;;;;16.30;8.90;;;6.60;99.90;;;;;;5000985;28;20235;-72
2022/12/27 15:07:53;;;;;;;16.00;8.20;;;6.60;99.90;;;;;;5000140;28;20221;-71
2022/12/27 15:10:32;;;;;;;13.40;7.70;;;6.60;99.90;;;;;;5015285;28;20232;-71
2022/12/27 15:13:06;;;;;;;7.37;4.87;;;6.60;99.90;;;;;;5015379;28;20231;-70
2022/12/27 15:15:46;;;;;;;6.37;3.93;;;6.60;99.90;;;;;;5015391;28;20191;-71
2022/12/27 15:18:43;;;;;;;6.27;3.80;;;6.50;99.90;;;;;;5015340;28;20222;-71
2022/12/27 15:21:33;;;;;;;6.67;3.53;;;6.40;99.90;;;;;;5014712;28;20213;-69
2022/12/27 15:24:06;;;;;;;5.10;3.43;;;6.50;99.90;;;;;;5012887;28;20203;-70
2022/12/27 15:26:40;;;;;;;5.87;3.73;;;6.40;99.90;;;;;;5012656;28;20222;-73
2022/12/27 15:29:26;;;;;;;4.73;3.27;;;6.40;99.90;;;;;;5013563;28;20203;-72
2022/12/27 15:32:08;;;;;;;5.97;3.10;;;6.40;99.90;;;;;;5003495;28;20203;-72
2022/12/27 15:34:48;;;;;;;4.33;2.87;;;6.40;99.90;;;;;;5007446;28;20206;-70
2022/12/27 15:38:00;;;;;;;4.47;3.20;;;6.30;99.90;;;;;;5013548;28;20231;-70
2022/12/27 15:40:42;;;;;;;4.63;3.03;;;6.30;99.90;;;;;;5006430;28;20207;-69
2022/12/27 15:43:24;;;;;;;3.30;2.30;;;6.20;99.90;;;;;;5011765;28;20569;-71
2022/12/27 15:46:06;;;;;;;4.00;2.60;;;6.20;99.90;;;;;;5012430;28;20203;-72
2022/12/27 15:48:58;;;;;;;4.40;2.80;;;6.10;99.90;;;;;;5003684;28;20206;-71
2022/12/27 15:51:32;;;;;;;3.77;2.00;;;6.00;99.90;;;;;;5006113;28;20210;-71
2022/12/27 15:54:23;;;;;;;2.43;1.93;;;5.80;99.90;;;;;;5013349;28;20202;-71
2022/12/27 15:57:09;;;;;;;2.53;2.10;;;5.70;99.90;;;;;;5014135;28;20198;-71
2022/12/27 15:59:41;;;;;;;3.97;2.37;;;5.70;99.90;;;;;;5014192;28;20207;-70
2022/12/27 16:02:49;;;;;;;2.23;1.90;;;5.60;99.90;;;;;;5014205;28;20198;-70
2022/12/27 16:05:42;;;;;;;2.57;1.70;;;5.50;99.90;;;;;;5013959;28;20230;-70
2022/12/27 16:08:38;;;;;;;2.93;1.93;;;5.40;99.90;;;;;;5013970;28;20243;-71
2022/12/27 16:11:09;;;;;;;1.63;1.53;;;5.40;99.90;;;;;;5002335;28;20204;-74
2022/12/27 16:13:43;;;;;;;2.07;1.67;;;5.30;99.90;;;;;;4999955;28;20197;-71
2022/12/27 16:16:55;;;;;;;2.47;1.80;;;5.20;99.90;;;;;;5013650;28;20571;-70
2022/12/27 16:19:44;;;;;;;3.80;2.13;;;5.20;99.90;;;;;;5013151;28;20206;-71
2022/12/27 16:22:35;;;;;;;3.20;2.00;;;5.20;99.90;;;;;;5011827;28;20195;-70
2022/12/27 16:25:28;;;;;;;2.50;2.00;;;5.10;99.90;;;;;;5013880;28;20221;-72
2022/12/27 16:27:58;;;;;;;2.90;1.90;;;5.10;99.90;;;;;;5013951;28;20198;-70
2022/12/27 16:30:44;;;;;;;2.00;1.60;;;5.10;99.90;;;;;;5013876;28;20201;-74
2022/12/27 16:33:33;;;;;;;2.43;1.80;;;5.00;99.90;;;;;;5013725;28;20198;-72
2022/12/27 16:36:23;;;;;;;1.70;1.60;;;4.90;99.90;;;;;;5013800;28;20238;-71
2022/12/27 16:39:06;;;;;;;2.93;1.80;;;4.80;99.90;;;;;;5014014;28;20272;-71
2022/12/27 16:41:56;;;;;;;1.70;1.60;;;4.70;99.90;;;;;;5014103;28;20201;-70
2022/12/27 16:44:33;;;;;;;2.30;1.70;;;4.60;99.90;;;;;;5013798;28;20209;-72
2022/12/27 16:47:09;;;;;;;3.10;2.00;;;4.60;99.90;;;;;;5013621;28;20210;-71
2022/12/27 16:49:58;;;;;;;2.83;1.93;;;4.70;99.90;;;;;;5013804;28;20669;-70
2022/12/27 16:52:59;;;;;;;1.90;1.70;;;4.60;99.90;;;;;;5013771;28;20250;-70
2022/12/27 16:55:52;;;;;;;5.17;2.77;;;4.50;99.90;;;;;;4981105;28;20202;-71
2022/12/27 16:58:31;;;;;;;3.27;2.03;;;4.50;99.90;;;;;;5013114;28;20198;-69
2022/12/27 17:01:00;;;;;;;2.83;1.83;;;4.40;99.90;;;;;;5013123;28;20190;-70
2022/12/27 17:03:41;;;;;;;2.13;1.67;;;4.40;99.90;;;;;;5013231;28;20678;-71
2022/12/27 17:06:41;;;;;;;3.53;1.90;;;4.30;99.90;;;;;;5013261;28;20655;-71
2022/12/27 17:09:38;;;;;;;2.23;1.90;;;4.30;99.90;;;;;;5012608;28;20292;-72
2022/12/27 17:12:13;;;;;;;3.30;1.93;;;4.20;99.90;;;;;;5013336;28;20187;-70
2022/12/27 17:14:43;;;;;;;2.43;1.73;;;4.20;99.90;;;;;;5015015;28;20202;-71
2022/12/27 17:17:16;;;;;;;2.63;1.97;;;4.20;99.90;;;;;;5012967;28;20191;-71
2022/12/27 17:19:48;;;;;;;2.63;2.20;;;4.10;99.90;;;;;;5013144;28;20199;-71
2022/12/27 17:22:16;;;;;;;4.77;2.50;;;4.00;99.90;;;;;;5012894;28;20202;-71
2022/12/27 17:24:43;;;;;;;2.70;2.10;;;4.10;99.90;;;;;;5015860;28;20221;-71
2022/12/27 17:27:22;;;;;;;4.80;2.30;;;4.00;99.90;;;;;;5012666;28;20233;-71
2022/12/27 17:30:17;;;;;;;5.27;2.50;;;4.00;99.90;;;;;;5014295;28;20190;-66
2022/12/27 17:33:13;;;;;;;3.53;2.07;;;4.10;99.90;;;;;;5005275;28;20402;-66
2022/12/27 17:35:58;;;;;;;4.30;2.00;;;4.00;99.90;;;;;;5012336;28;20191;-65
2022/12/27 17:38:39;;;;;;;4.40;2.00;;;4.00;99.90;;;;;;5012733;28;20690;-67
2022/12/27 17:41:14;;;;;;;6.00;2.37;;;4.00;99.90;;;;;;5012473;28;20195;-66
2022/12/27 17:46:48;;;;;;;4.67;2.30;;;3.90;99.90;;;;;;5012415;28;20209;-65
2022/12/27 17:49:16;;;;;;;7.43;2.40;;;3.80;99.90;;;;;;5012605;28;20191;-66
2022/12/27 17:57:52;;;;;;;9.13;2.80;;;3.80;99.90;;;;;;5012363;28;20228;-66
2022/12/27 18:00:00;;;;;;;7.77;2.93;;;3.80;99.90;;;;;;5003180;28;20639;-66
2022/12/27 18:02:31;;;;;;;9.23;2.87;;;3.80;99.90;;;;;;5012277;28;20209;-66
2022/12/27 18:05:02;;;;;;;8.57;2.77;;;3.80;99.90;;;;;;5012205;28;20191;-65
2022/12/27 18:07:32;;;;;;;8.47;2.57;;;3.80;99.90;;;;;;5011892;28;20463;-65
2022/12/27 20:21:58;;;;;;;12.27;5.23;;;2.70;99.90;;;;;;5638037;22;20572;-72
2022/12/27 20:24:25;;;;;;;12.30;4.27;;;2.80;99.90;;;;;;5150634;27;20229;-73
2022/12/27 20:26:51;;;;;;;12.93;3.87;;;2.80;99.90;;;;;;5151287;27;20293;-72
2022/12/27 20:29:19;;;;;;;11.60;4.30;;;2.90;99.90;;;;;;5150170;27;20280;-71
2022/12/27 20:31:48;;;;;;;11.50;3.87;;;3.00;99.90;;;;;;5150519;27;20255;-70
2022/12/27 20:34:15;;;;;;;12.43;4.20;;;3.10;99.90;;;;;;5129166;27;20249;-70
2022/12/27 20:36:43;;;;;;;14.87;4.53;;;3.20;99.90;;;;;;5128924;27;20285;-71
2022/12/27 20:39:11;;;;;;;11.60;4.27;;;3.30;99.90;;;;;;5130202;28;20195;-70
2022/12/27 20:41:38;;;;;;;10.37;4.60;;;3.30;99.90;;;;;;5130398;27;20685;-71
2022/12/27 20:44:05;;;;;;;11.53;4.10;;;3.40;99.90;;;;;;5138313;27;20195;-71
2022/12/27 20:46:32;;;;;;;11.60;4.50;;;3.40;99.90;;;;;;5129628;28;20202;-71
2022/12/27 20:49:00;;;;;;;13.43;4.23;;;3.50;99.90;;;;;;5132087;27;20213;-74
2022/12/27 20:51:30;;;;;;;13.23;4.47;;;3.50;99.90;;;;;;5144623;27;20197;-73
2022/12/27 20:54:00;;;;;;;13.13;4.83;;;3.50;99.90;;;;;;5133808;27;20294;-73
2022/12/27 20:56:28;;;;;;;10.63;4.77;;;3.50;99.90;;;;;;5130294;28;20221;-73
2022/12/27 20:58:56;;;;;;;13.40;5.47;;;3.50;99.90;;;;;;5130055;28;20221;-72
2022/12/27 21:01:26;;;;;;;14.57;5.07;;;3.60;99.90;;;;;;5109456;28;20231;-73
2022/12/27 21:03:54;;;;;;;11.13;5.10;;;3.60;99.90;;;;;;5109603;28;20187;-72
2022/12/27 21:06:25;;;;;;;18.80;5.80;;;3.60;99.90;;;;;;5132824;27;20225;-71
2022/12/27 21:08:52;;;;;;;16.70;5.70;;;3.60;99.90;;;;;;5132512;27;20210;-72
2022/12/27 21:11:21;;;;;;;14.53;5.50;;;3.60;99.90;;;;;;5130139;27;20203;-72
2022/12/27 21:13:49;;;;;;;13.43;4.63;;;3.60;99.90;;;;;;5129462;28;20210;-71
2022/12/27 21:16:18;;;;;;;13.63;4.40;;;3.60;99.90;;;;;;5132836;27;20199;-73
2022/12/27 21:18:44;;;;;;;11.73;4.20;;;3.60;99.90;;;;;;5130460;27;20199;-69
2022/12/27 21:21:13;;;;;;;11.97;4.47;;;3.60;99.90;;;;;;5138938;27;20708;-67
2022/12/27 21:23:42;;;;;;;12.33;4.13;;;3.60;99.90;;;;;;5139059;27;20238;-70
2022/12/27 21:26:11;;;;;;;8.67;3.87;;;3.60;99.90;;;;;;5140413;27;20762;-68
2022/12/27 21:28:39;;;;;;;12.03;3.97;;;3.60;99.90;;;;;;5126820;27;20206;-68
2022/12/27 21:31:07;;;;;;;9.70;3.77;;;3.60;99.90;;;;;;5120159;28;20203;-70
2022/12/27 21:33:35;;;;;;;10.17;3.50;;;3.50;99.90;;;;;;5094510;28;20548;-67
2022/12/27 21:36:04;;;;;;;10.33;3.50;;;3.50;99.90;;;;;;5109923;28;20215;-69
2022/12/27 21:38:31;;;;;;;11.67;3.93;;;3.50;99.90;;;;;;5113029;28;20739;-69
2022/12/27 21:40:59;;;;;;;10.00;3.47;;;3.50;99.90;;;;;;5113913;28;20223;-69
2022/12/27 21:43:27;;;;;;;11.10;3.83;;;3.50;99.90;;;;;;5112387;28;20210;-68
2022/12/27 21:45:54;;;;;;;10.57;3.80;;;3.50;99.90;;;;;;5110479;28;20211;-69
2022/12/27 21:48:23;;;;;;;9.77;3.40;;;3.50;99.90;;;;;;5115115;28;20922;-69
2022/12/27 21:50:50;;;;;;;9.70;3.47;;;3.50;99.90;;;;;;5114479;28;20209;-66
2022/12/27 21:53:19;;;;;;;10.80;3.93;;;3.50;99.90;;;;;;5115143;28;20244;-69
2022/12/27 21:55:46;;;;;;;9.73;4.03;;;3.50;99.90;;;;;;5113637;28;20574;-69
2022/12/27 21:58:13;;;;;;;11.93;4.00;;;3.50;99.90;;;;;;5109809;27;20207;-68
2022/12/27 22:00:40;;;;;;;11.73;4.03;;;3.50;99.90;;;;;;5094309;28;20220;-67